Time;durP1;ratioP1;P1;durP2;ratioP2;P2;SDS_P1;SDS_P2;PMS_P1;PMS_P2;Temp;Humidity;BMP_temperature;BMP_pressure;BME280_temperature;BME280_humidity;BME280_pressure;Samples;Min_cycle;Max_cycle;Signal;HPM_P1;HPM_P2
2023/09/20 00:00:27;;;;;;;;;;;;;;;15.62;100.00;100519.22;4963780;28;19926;-83
2023/09/20 00:03:13;;;;;;;;;;;;;;;15.61;100.00;100510.38;4953988;28;20444;-83
2023/09/20 00:06:00;;;;;;;;;;;;;;;15.63;100.00;100509.41;4963698;28;20053;-83
2023/09/20 00:08:46;;;;;;;;;;;;;;;15.63;100.00;100515.59;4954385;28;19950;-83
2023/09/20 00:11:35;;;;;;;;;;;;;;;15.65;100.00;100518.16;4957471;28;19925;-82
2023/09/20 00:14:20;;;;;;;;;;;;;;;15.67;100.00;100522.41;4977146;28;19980;-83
2023/09/20 00:17:06;;;;;;;;;;;;;;;15.68;100.00;100512.59;4964234;28;19941;-83
2023/09/20 00:19:52;;;;;;;;;;;;;;;15.70;100.00;100526.69;4948334;28;19934;-84
2023/09/20 00:22:43;;;;;;;;;;;;;;;15.70;100.00;100522.19;4977816;28;19933;-85
2023/09/20 00:25:29;;;;;;;;;;;;;;;15.72;100.00;100524.75;4974794;28;19940;-85
2023/09/20 00:28:17;;;;;;;;;;;;;;;15.71;100.00;100515.03;4973668;28;19965;-82
2023/09/20 00:31:03;;;;;;;;;;;;;;;15.71;100.00;100517.72;4966237;28;20449;-82
2023/09/20 00:33:49;;;;;;;;;;;;;;;15.68;100.00;100512.59;4977911;28;19930;-82
2023/09/20 00:36:35;;;;;;;;;;;;;;;15.65;100.00;100512.81;4976869;28;19945;-83
2023/09/20 00:39:20;;;;;;;;;;;;;;;15.63;100.00;100517.41;4975778;28;20404;-82
2023/09/20 00:42:06;;;;;;;;;;;;;;;15.61;100.00;100518.38;4976693;28;19925;-83
2023/09/20 00:44:52;;;;;;;;;;;;;;;15.64;100.00;100516.44;4962375;28;19940;-82
2023/09/20 00:47:41;;;;;;;;;;;;;;;15.66;100.00;100520.72;4962485;28;19929;-82
2023/09/20 00:50:27;;;;;;;;;;;;;;;15.69;100.00;100519.66;4976906;28;19958;-83
2023/09/20 00:53:15;;;;;;;;;;;;;;;15.72;100.00;100530.09;4976874;28;19930;-83
2023/09/20 00:56:03;;;;;;;;;;;;;;;15.72;100.00;100522.06;4966471;28;20305;-83
2023/09/20 00:58:53;;;;;;;;;;;;;;;15.69;100.00;100525.81;4976453;28;20400;-83
2023/09/20 01:01:39;;;;;;;;;;;;;;;15.67;100.00;100521.56;4968267;28;19977;-82
2023/09/20 01:04:24;;;;;;;;;;;;;;;15.66;100.00;100517.19;4950893;28;19925;-82
2023/09/20 01:07:10;;;;;;;;;;;;;;;15.65;100.00;100515.47;4954950;28;20010;-82
2023/09/20 01:09:56;;;;;;;;;;;;;;;15.64;100.00;100514.66;4959323;28;19925;-83
2023/09/20 01:12:41;;;;;;;;;;;;;;;15.64;100.00;100503.09;4975249;28;20064;-80
2023/09/20 01:15:36;;;;;;;;;;;;;;;15.64;100.00;100521.78;4961414;28;19926;-82
2023/09/20 01:18:21;;;;;;;;;;;;;;;15.64;100.00;100500.44;4976383;28;20016;-82
2023/09/20 01:21:07;;;;;;;;;;;;;;;15.64;100.00;100505.78;4967622;28;20125;-82
2023/09/20 01:23:53;;;;;;;;;;;;;;;15.65;100.00;100507.47;4986684;28;19922;-83
2023/09/20 01:26:41;;;;;;;;;;;;;;;15.64;100.00;100503.97;4964590;28;19926;-81
2023/09/20 01:29:30;;;;;;;;;;;;;;;15.66;100.00;100506.50;5040014;23;22140;-89
2023/09/20 01:38:28;;;;;;;;;;;;;;;15.69;100.00;100506.31;5192875;23;19926;-83
2023/09/20 01:55:15;;;;;;;;;;;;;;;15.72;100.00;100508.72;5576589;23;19937;-86
2023/09/20 02:06:01;;;;;;;;;;;;;;;15.74;100.00;100497.00;5831408;23;20024;-84
2023/09/20 02:08:49;;;;;;;;;;;;;;;15.74;100.00;100502.31;4960013;28;19926;-83
2023/09/20 02:11:35;;;;;;;;;;;;;;;15.77;100.00;100497.72;4968816;28;20412;-84
2023/09/20 02:19:30;;;;;;;;;;;;;;;15.77;100.00;100506.59;5340851;23;19933;-84
2023/09/20 02:24:51;;;;;;;;;;;;;;;15.80;100.00;100498.34;5664878;23;19940;-85
2023/09/20 02:27:43;;;;;;;;;;;;;;;15.82;100.00;100491.09;4990241;28;19971;-84
2023/09/20 02:30:31;;;;;;;;;;;;;;;15.83;100.00;100498.13;4990961;28;19926;-85
2023/09/20 02:33:27;;;;;;;;;;;;;;;15.83;100.00;100489.28;5167483;23;19933;-83
2023/09/20 02:36:12;;;;;;;;;;;;;;;15.84;100.00;100494.50;4987978;28;19980;-83
2023/09/20 02:38:59;;;;;;;;;;;;;;;15.87;100.00;100494.25;4952598;28;19930;-81
2023/09/20 02:41:44;;;;;;;;;;;;;;;15.87;100.00;100475.56;4981066;28;19933;-82
2023/09/20 02:44:30;;;;;;;;;;;;;;;15.87;100.00;100480.06;4971396;28;19941;-82
2023/09/20 02:47:18;;;;;;;;;;;;;;;15.87;100.00;100464.06;4981023;28;22045;-82
2023/09/20 02:50:33;;;;;;;;;;;;;;;15.90;100.00;100469.16;5289747;23;19957;-84
2023/09/20 02:53:21;;;;;;;;;;;;;;;15.92;100.00;100471.75;4934530;28;19926;-84
2023/09/20 02:56:08;;;;;;;;;;;;;;;15.91;100.00;100476.19;4908300;29;19956;-83
2023/09/20 02:58:57;;;;;;;;;;;;;;;15.91;100.00;100473.53;4939157;28;19911;-85
2023/09/20 03:01:44;;;;;;;;;;;;;;;15.89;100.00;100471.00;4926613;29;20014;-83
2023/09/20 03:04:30;;;;;;;;;;;;;;;15.86;100.00;100465.88;4944381;28;19931;-83
2023/09/20 03:07:18;;;;;;;;;;;;;;;15.85;100.00;100466.00;4941342;28;19930;-86
2023/09/20 03:10:05;;;;;;;;;;;;;;;15.83;100.00;100468.78;4945237;28;19989;-83
2023/09/20 03:12:52;;;;;;;;;;;;;;;15.81;100.00;100468.06;4947277;28;19970;-83
2023/09/20 03:16:04;;;;;;;;;;;;;;;15.80;100.00;100469.00;4947794;28;19930;-84
2023/09/20 03:18:50;;;;;;;;;;;;;;;15.80;100.00;100478.84;4953696;28;19978;-83
2023/09/20 03:21:36;;;;;;;;;;;;;;;15.80;100.00;100466.31;4940399;28;20062;-83
2023/09/20 03:24:21;;;;;;;;;;;;;;;15.79;100.00;100467.28;4950925;28;19966;-83
2023/09/20 03:27:07;;;;;;;;;;;;;;;15.79;100.00;100467.28;4926691;28;20454;-83
2023/09/20 03:29:55;;;;;;;;;;;;;;;15.80;100.00;100466.31;4958148;28;20450;-83
2023/09/20 03:32:42;;;;;;;;;;;;;;;15.78;100.00;100476.25;4939912;28;20029;-83
2023/09/20 03:35:30;;;;;;;;;;;;;;;15.78;100.00;100468.25;4955558;28;19930;-81
2023/09/20 03:38:16;;;;;;;;;;;;;;;15.77;100.00;100463.03;4967658;28;19925;-83
2023/09/20 03:41:04;;;;;;;;;;;;;;;15.78;100.00;100465.59;4979295;28;20378;-83
2023/09/20 03:43:50;;;;;;;;;;;;;;;15.79;100.00;100464.63;4981176;28;20010;-82
2023/09/20 03:46:36;;;;;;;;;;;;;;;15.78;100.00;100465.59;4970956;28;19968;-82
2023/09/20 03:49:21;;;;;;;;;;;;;;;15.78;100.00;100454.06;4974664;28;19954;-81
2023/09/20 03:52:07;;;;;;;;;;;;;;;15.77;100.00;100453.22;4985696;28;20456;-82
2023/09/20 03:54:53;;;;;;;;;;;;;;;15.74;100.00;100456.97;4952770;28;20031;-83
2023/09/20 03:57:40;;;;;;;;;;;;;;;15.73;100.00;100457.94;4980164;28;19922;-83
2023/09/20 04:00:25;;;;;;;;;;;;;;;15.71;100.00;100449.19;4964304;28;19940;-84
2023/09/20 04:03:13;;;;;;;;;;;;;;;15.68;100.00;100448.56;4973630;28;19941;-84
2023/09/20 04:06:01;;;;;;;;;;;;;;;15.66;100.00;100446.00;4982532;28;19936;-83
2023/09/20 04:08:46;;;;;;;;;;;;;;;15.64;100.00;100453.28;4986824;28;19921;-84
2023/09/20 04:11:32;;;;;;;;;;;;;;;15.63;100.00;100450.72;4967699;28;20001;-81
2023/09/20 04:14:18;;;;;;;;;;;;;;;15.60;100.00;100436.63;5001090;28;19926;-84
2023/09/20 04:17:07;;;;;;;;;;;;;;;15.57;100.00;100431.50;4980023;28;19933;-82
2023/09/20 04:19:55;;;;;;;;;;;;;;;15.58;100.00;100437.72;4965028;28;20297;-81
2023/09/20 04:22:41;;;;;;;;;;;;;;;15.56;100.00;100443.16;4977659;28;19945;-82
2023/09/20 04:25:26;;;;;;;;;;;;;;;15.55;100.00;100443.25;4979663;28;20309;-83
2023/09/20 04:28:12;;;;;;;;;;;;;;;15.55;100.00;100425.44;4954055;28;19926;-83
2023/09/20 04:30:58;;;;;;;;;;;;;;;15.54;100.00;100421.09;4968926;28;19962;-84
2023/09/20 04:33:43;;;;;;;;;;;;;;;15.54;100.00;100429.09;4965107;28;20380;-83
2023/09/20 04:36:29;;;;;;;;;;;;;;;15.54;100.00;100429.09;4980283;28;19937;-82
2023/09/20 04:39:15;;;;;;;;;;;;;;;15.52;100.00;100439.00;4973413;28;19968;-83
2023/09/20 04:42:10;;;;;;;;;;;;;;;15.52;100.00;100439.00;4966004;28;20123;-84
2023/09/20 04:44:56;;;;;;;;;;;;;;;15.49;100.00;100436.56;4979200;28;19940;-83
2023/09/20 04:47:42;;;;;;;;;;;;;;;15.51;100.00;100434.63;4987272;28;19974;-82
2023/09/20 04:50:28;;;;;;;;;;;;;;;15.51;100.00;100431.97;4965073;28;19937;-84
2023/09/20 04:53:16;;;;;;;;;;;;;;;15.52;100.00;100432.81;4964315;28;19930;-82
2023/09/20 04:56:02;;;;;;;;;;;;;;;15.51;100.00;100434.63;4981078;28;19957;-85
2023/09/20 04:58:48;;;;;;;;;;;;;;;15.52;100.00;100433.66;4975087;28;19933;-83
2023/09/20 05:01:37;;;;;;;;;;;;;;;15.51;100.00;100426.63;4965947;28;20052;-86
2023/09/20 05:04:24;;;;;;;;;;;;;;;15.52;100.00;100424.81;4984701;28;20443;-83
2023/09/20 05:07:10;;;;;;;;;;;;;;;15.52;100.00;100423.00;4974884;28;20001;-84
2023/09/20 05:09:56;;;;;;;;;;;;;;;15.53;100.00;100421.19;4966497;28;19937;-85
2023/09/20 05:12:44;;;;;;;;;;;;;;;15.53;100.00;100424.69;4983425;28;19940;-84
2023/09/20 05:15:29;;;;;;;;;;;;;;;15.55;100.00;100427.25;5038382;23;20293;-84
2023/09/20 05:18:18;;;;;;;;;;;;;;;15.57;100.00;100422.66;4983266;28;19925;-83
2023/09/20 05:21:05;;;;;;;;;;;;;;;15.58;100.00;100413.69;5006414;28;19937;-84
2023/09/20 05:23:53;;;;;;;;;;;;;;;15.57;100.00;100415.50;4989201;28;19933;-83
2023/09/20 05:26:46;;;;;;;;;;;;;;;15.55;100.00;100412.13;5011018;28;20007;-83
2023/09/20 05:30:07;;;;;;;;;;;;;;;15.56;100.00;100403.13;4995120;28;20716;-85
2023/09/20 05:32:54;;;;;;;;;;;;;;;15.56;100.00;100413.81;4982976;28;20440;-82
2023/09/20 05:35:40;;;;;;;;;;;;;;;15.57;100.00;100420.84;4986478;28;19940;-84
2023/09/20 05:38:26;;;;;;;;;;;;;;;15.56;100.00;100420.94;4997403;28;19984;-80
2023/09/20 05:41:12;;;;;;;;;;;;;;;15.57;100.00;100420.84;4996175;28;20361;-83
2023/09/20 05:43:58;;;;;;;;;;;;;;;15.58;100.00;100422.53;4978930;28;19929;-83
2023/09/20 05:46:47;;;;;;;;;;;;;;;15.57;100.00;100433.31;4979285;28;20496;-82
2023/09/20 05:49:33;;;;;;;;;;;;;;;15.56;100.00;100427.16;4972068;28;20499;-83
2023/09/20 05:52:21;;;;;;;;;;;;;;;15.57;100.00;100428.84;4979287;28;20680;-84
2023/09/20 05:55:26;;;;;;;;;;;;;;;15.57;100.00;100430.66;4967580;28;20004;-84
2023/09/20 05:58:15;;;;;;;;;;;;;;;15.57;100.00;100426.19;4988797;28;19989;-85
2023/09/20 06:01:01;;;;;;;;;;;;;;;15.58;100.00;100419.88;4990549;28;20356;-83
2023/09/20 06:03:46;;;;;;;;;;;;;;;15.60;100.00;100420.59;4957545;28;19980;-84
2023/09/20 06:06:32;;;;;;;;;;;;;;;15.61;100.00;100422.34;4971083;28;20390;-84
2023/09/20 06:09:23;;;;;;;;;;;;;;;15.63;100.00;100413.38;4984263;28;20032;-84
2023/09/20 06:12:09;;;;;;;;;;;;;;;15.63;100.00;100429.38;4982484;28;19980;-85
2023/09/20 06:14:58;;;;;;;;;;;;;;;15.63;100.00;100419.53;4984924;28;19926;-86
2023/09/20 06:17:44;;;;;;;;;;;;;;;15.62;100.00;100415.16;4987278;28;19937;-82
2023/09/20 06:20:29;;;;;;;;;;;;;;;15.63;100.00;100421.38;4969187;28;19930;-85
2023/09/20 06:23:19;;;;;;;;;;;;;;;15.64;100.00;100417.72;4970747;28;19944;-86
2023/09/20 06:26:05;;;;;;;;;;;;;;;15.62;100.00;100412.50;4973363;28;19929;-85
2023/09/20 06:28:53;;;;;;;;;;;;;;;15.61;100.00;100409.00;4961277;28;19917;-85
2023/09/20 06:31:39;;;;;;;;;;;;;;;15.61;100.00;100416.13;4974207;28;19934;-84
2023/09/20 06:34:26;;;;;;;;;;;;;;;15.57;100.00;100410.16;4988816;28;19925;-85
2023/09/20 06:37:12;;;;;;;;;;;;;;;15.54;100.00;100415.75;4974367;28;19958;-87
2023/09/20 06:40:01;;;;;;;;;;;;;;;15.53;100.00;100414.03;4989139;28;19935;-85
2023/09/20 06:42:46;;;;;;;;;;;;;;;15.49;100.00;100423.22;4973642;28;19930;-86
2023/09/20 06:45:32;;;;;;;;;;;;;;;15.47;100.00;100426.00;4973554;28;19945;-85
2023/09/20 06:48:23;;;;;;;;;;;;;;;15.46;100.00;100428.78;4972474;28;19925;-86
2023/09/20 06:51:11;;;;;;;;;;;;;;;15.43;100.00;100424.50;4958633;28;19929;-87
2023/09/20 06:53:58;;;;;;;;;;;;;;;15.43;100.00;100431.69;4985431;28;19929;-86
2023/09/20 06:56:44;;;;;;;;;;;;;;;15.43;100.00;100429.00;4984516;28;19930;-86
2023/09/20 06:59:33;;;;;;;;;;;;;;;15.44;100.00;100420.91;4970055;28;20282;-86
2023/09/20 07:02:19;;;;;;;;;;;;;;;15.45;100.00;100421.72;5021878;23;19941;-84
2023/09/20 07:07:49;;;;;;;;;;;;;;;15.47;100.00;100426.00;4503042;23;19937;-87
2023/09/20 07:10:36;;;;;;;;;;;;;;;15.48;100.00;100426.88;5151729;23;19956;-84
2023/09/20 07:13:26;;;;;;;;;;;;;;;15.52;100.00;100425.66;5102582;23;19941;-83
2023/09/20 07:16:16;;;;;;;;;;;;;;;15.56;100.00;100423.63;4973117;28;20314;-94
2023/09/20 07:19:26;;;;;;;;;;;;;;;15.60;100.00;100425.09;4970743;28;20364;-87
2023/09/20 07:22:12;;;;;;;;;;;;;;;15.63;100.00;100429.38;4976126;28;19937;-85
2023/09/20 07:24:58;;;;;;;;;;;;;;;15.65;100.00;100422.09;4960353;28;19934;-87
2023/09/20 07:28:06;;;;;;;;;;;;;;;15.66;100.00;100432.66;4959617;28;20010;-85
2023/09/20 07:31:00;;;;;;;;;;;;;;;15.67;100.00;100433.50;4955080;28;19926;-86
2023/09/20 07:33:49;;;;;;;;;;;;;;;15.70;100.00;100441.28;4960007;28;20409;-85
2023/09/20 07:36:43;;;;;;;;;;;;;;;15.75;100.00;100444.47;4972533;28;19934;-88
2023/09/20 07:39:50;;;;;;;;;;;;;;;15.83;100.00;100439.41;4966937;28;19926;-89
2023/09/20 07:42:36;;;;;;;;;;;;;;;15.89;100.00;100441.63;4969214;28;19973;-87
2023/09/20 07:45:22;;;;;;;;;;;;;;;15.95;100.00;100444.84;4964246;28;19926;-86
2023/09/20 07:51:29;;;;;;;;;;;;;;;16.13;100.00;100447.97;4892699;29;19927;-89
2023/09/20 07:54:17;;;;;;;;;;;;;;;16.23;100.00;100445.44;4880388;29;19915;-85
2023/09/20 07:57:06;;;;;;;;;;;;;;;16.27;100.00;100450.44;4951213;28;19963;-86
2023/09/20 08:00:20;;;;;;;;;;;;;;;;;;;;;
2023/09/20 08:03:10;;;;;;;;;;;;;;;16.27;100.00;100449.56;4962296;28;19966;-89
2023/09/20 08:06:22;;;;;;;;;;;;;;;16.27;100.00;100465.59;4931009;28;19927;-84
2023/09/20 08:09:18;;;;;;;;;;;;;;;16.26;100.00;100461.22;4931634;28;19937;-87
2023/09/20 08:12:11;;;;;;;;;;;;;;;16.27;100.00;100470.94;4917454;29;20738;-86
2023/09/20 08:14:59;;;;;;;;;;;;;;;16.28;100.00;100473.50;4918803;29;19982;-89
2023/09/20 08:20:50;;;;;;;;;;;;;;;16.30;100.00;100486.75;4907595;29;19930;-89
2023/09/20 09:00:46;;;;;;;;;;;;;;;16.25;100.00;100476.38;4902002;29;19931;-84
2023/09/20 09:03:33;;;;;;;;;;;;;;;16.27;100.00;100477.13;4908084;29;20422;-88
2023/09/20 09:06:21;;;;;;;;;;;;;;;16.29;100.00;100469.03;4905822;29;20673;-86
2023/09/20 09:09:13;;;;;;;;;;;;;;;16.33;100.00;100469.63;4918817;29;20187;-88
2023/09/20 09:14:28;;;;;;;;;;;;;;;16.36;100.00;100472.94;5002720;23;19935;-88
2023/09/20 09:17:16;;;;;;;;;;;;;;;16.37;100.00;100461.28;4971974;28;20036;-91
2023/09/20 09:20:05;;;;;;;;;;;;;;;16.41;100.00;100462.72;4979174;28;19940;-88
2023/09/20 09:22:51;;;;;;;;;;;;;;;16.43;100.00;100463.47;4974492;28;19937;-86
2023/09/20 09:25:36;;;;;;;;;;;;;;;16.48;100.00;100452.44;4994912;28;19925;-85
2023/09/20 09:28:26;;;;;;;;;;;;;;;16.51;100.00;100457.53;4988943;28;19936;-86
2023/09/20 09:31:13;;;;;;;;;;;;;;;16.56;100.00;100447.34;4969120;28;19961;-87
2023/09/20 09:34:01;;;;;;;;;;;;;;;16.63;100.00;100450.41;4990975;28;19933;-87
2023/09/20 09:36:47;;;;;;;;;;;;;;;16.70;100.00;100448.09;4990423;28;20032;-88
2023/09/20 09:39:33;;;;;;;;;;;;;;;16.78;100.00;100455.53;4977108;28;19925;-90
2023/09/20 09:42:25;;;;;;;;;;;;;;;16.83;100.00;100440.81;4989417;28;19930;-86
2023/09/20 09:45:14;;;;;;;;;;;;;;;16.89;100.00;100442.16;4987426;28;19991;-87
2023/09/20 09:48:00;;;;;;;;;;;;;;;16.88;100.00;100444.97;4976664;28;21502;-89
2023/09/20 09:50:47;;;;;;;;;;;;;;;16.88;100.00;100455.66;4972787;28;20052;-87
2023/09/20 09:53:34;;;;;;;;;;;;;;;16.89;100.00;100442.16;4984823;28;19929;-88
2023/09/20 09:56:22;;;;;;;;;;;;;;;16.89;100.00;100443.97;4973258;28;19929;-84
2023/09/20 09:59:08;;;;;;;;;;;;;;;16.84;100.00;100453.22;4992882;28;19948;-88
2023/09/20 10:02:00;;;;;;;;;;;;;;;16.81;100.00;100447.25;5043832;23;19927;-85
2023/09/20 10:04:59;;;;;;;;;;;;;;;16.78;100.00;100453.69;4961169;28;19937;-89
2023/09/20 10:07:52;;;;;;;;;;;;;;;16.79;100.00;100450.03;4953209;28;19922;-85
2023/09/20 10:10:38;;;;;;;;;;;;;;;16.79;100.00;100462.56;4958373;28;19929;-86
2023/09/20 10:13:24;;;;;;;;;;;;;;;16.79;100.00;100466.06;4943527;28;19937;-86
2023/09/20 10:16:10;;;;;;;;;;;;;;;16.77;100.00;100469.88;4956929;28;19922;-92
2023/09/20 10:18:56;;;;;;;;;;;;;;;16.74;100.00;100467.41;4930108;28;19934;-85
2023/09/20 10:22:10;;;;;;;;;;;;;;;16.71;100.00;100468.50;4944728;28;19930;-83
2023/09/20 10:25:00;;;;;;;;;;;;;;;16.69;100.00;100473.94;4943321;28;19925;-82
2023/09/20 10:27:46;;;;;;;;;;;;;;;16.67;100.00;100464.38;4957314;28;19937;-90
2023/09/20 10:30:34;;;;;;;;;;;;;;;16.65;100.00;100475.19;4951656;28;19997;-87
2023/09/20 10:33:48;;;;;;;;;;;;;;;16.63;100.00;100462.91;4943928;28;19935;-90
2023/09/20 10:36:35;;;;;;;;;;;;;;;16.62;100.00;100459.38;4944599;28;20043;-88
2023/09/20 10:39:24;;;;;;;;;;;;;;;16.62;100.00;100459.38;4952380;28;20453;-93
2023/09/20 10:42:12;;;;;;;;;;;;;;;16.62;100.00;100448.69;4957324;28;19926;-87
2023/09/20 10:45:04;;;;;;;;;;;;;;;16.63;100.00;100469.09;4956318;28;19939;-86
2023/09/20 10:47:52;;;;;;;;;;;;;;;16.66;100.00;100468.00;4954564;28;20443;-89
2023/09/20 10:50:47;;;;;;;;;;;;;;;16.68;100.00;100458.88;4943859;28;19926;-90
2023/09/20 10:53:42;;;;;;;;;;;;;;;16.69;100.00;100460.59;4956239;28;20001;-88
2023/09/20 10:56:44;;;;;;;;;;;;;;;16.68;100.00;100464.22;4957162;28;19926;-86
2023/09/20 10:59:33;;;;;;;;;;;;;;;16.70;100.00;100456.97;4961473;28;19926;-88
2023/09/20 11:02:21;;;;;;;;;;;;;;;16.74;100.00;100462.06;4941436;28;20184;-86
2023/09/20 11:05:07;;;;;;;;;;;;;;;16.79;100.00;100443.84;4908021;29;20322;-85
2023/09/20 11:07:54;;;;;;;;;;;;;;;16.81;100.00;100447.25;4898460;29;19938;-85
2023/09/20 11:10:43;;;;;;;;;;;;;;;16.84;100.00;100449.69;4924450;29;19934;-91
2023/09/20 11:13:29;;;;;;;;;;;;;;;16.85;100.00;100454.06;4895071;29;20296;-88
2023/09/20 11:16:18;;;;;;;;;;;;;;;16.88;100.00;100448.47;4926069;29;20014;-90
2023/09/20 11:19:04;;;;;;;;;;;;;;;16.88;100.00;100448.47;4909863;29;20591;-85
2023/09/20 11:21:49;;;;;;;;;;;;;;;16.89;100.00;100450.16;4910243;29;20041;-85
2023/09/20 11:24:36;;;;;;;;;;;;;;;16.89;100.00;100447.50;4921742;28;19935;-81
2023/09/20 11:27:21;;;;;;;;;;;;;;;16.91;100.00;100432.19;4911473;29;20545;-84
2023/09/20 11:30:10;;;;;;;;;;;;;;;16.94;100.00;100426.59;4895972;29;19927;-82
2023/09/20 11:32:56;;;;;;;;;;;;;;;16.99;100.00;100433.41;4908149;29;19935;-82
2023/09/20 11:35:49;;;;;;;;;;;;;;;17.04;100.00;100429.44;4925006;29;20354;-83
2023/09/20 11:38:36;;;;;;;;;;;;;;;17.09;100.00;100429.91;4907120;29;19931;-82
2023/09/20 11:41:25;;;;;;;;;;;;;;;17.15;100.00;100433.91;4907405;29;19927;-84
2023/09/20 11:44:11;;;;;;;;;;;;;;;17.18;100.00;100452.41;4907689;29;20539;-84
2023/09/20 11:47:00;;;;;;;;;;;;;;;17.20;100.00;100452.25;4919065;28;19953;-85
2023/09/20 11:49:50;;;;;;;;;;;;;;;17.18;100.00;100444.38;4918403;29;19990;-85
2023/09/20 11:52:37;;;;;;;;;;;;;;;17.18;100.00;100456.91;4919627;29;19935;-85
2023/09/20 11:55:23;;;;;;;;;;;;;;;17.22;100.00;100455.69;4904693;29;19941;-88
2023/09/20 11:58:09;;;;;;;;;;;;;;;17.23;100.00;100450.19;4923406;29;19942;-80
2023/09/20 12:01:04;;;;;;;;;;;;;;;17.24;100.00;100443.91;4893746;29;19931;-84
2023/09/20 12:03:51;;;;;;;;;;;;;;;17.24;100.00;100449.25;4927967;29;20406;-84
2023/09/20 12:06:47;;;;;;;;;;;;;;;17.26;100.00;100440.25;4922015;29;19926;-82
2023/09/20 12:09:33;;;;;;;;;;;;;;;17.25;100.00;100434.03;4926540;29;19930;-85
2023/09/20 12:12:22;;;;;;;;;;;;;;;17.25;100.00;100434.03;4938195;28;19954;-84
2023/09/20 12:15:08;;;;;;;;;;;;;;;17.27;100.00;100431.25;4941083;29;19935;-83
2023/09/20 12:17:57;;;;;;;;;;;;;;;17.26;100.00;100432.22;4932796;29;20572;-86
2023/09/20 12:20:52;;;;;;;;;;;;;;;17.27;100.00;100423.22;4915761;29;20568;-83
2023/09/20 12:23:43;;;;;;;;;;;;;;;17.27;100.00;100437.41;4925146;29;19981;-87
2023/09/20 12:26:29;;;;;;;;;;;;;;;17.23;100.00;100423.44;4915425;29;19941;-84
2023/09/20 12:29:14;;;;;;;;;;;;;;;17.22;100.00;100429.78;4912731;29;19927;-85
2023/09/20 12:32:06;;;;;;;;;;;;;;;17.20;100.00;100415.69;4941522;28;19961;-86
2023/09/20 12:34:55;;;;;;;;;;;;;;;17.21;100.00;100411.19;4928906;28;19980;-84
2023/09/20 12:37:40;;;;;;;;;;;;;;;17.23;100.00;100422.63;4912357;29;19926;-84
2023/09/20 12:40:27;;;;;;;;;;;;;;;17.24;100.00;100417.16;4942185;28;19933;-82
2023/09/20 12:43:15;;;;;;;;;;;;;;;17.23;100.00;100410.06;4929971;29;20814;-84
2023/09/20 12:46:01;;;;;;;;;;;;;;;17.23;100.00;100415.41;4927060;29;20039;-84
2023/09/20 12:48:48;;;;;;;;;;;;;;;17.25;100.00;100404.59;4942763;29;20247;-83
2023/09/20 12:51:33;;;;;;;;;;;;;;;17.30;100.00;100393.53;4929625;29;20301;-84
2023/09/20 12:54:19;;;;;;;;;;;;;;;17.35;100.00;100391.34;4925634;29;19934;-86
2023/09/20 12:57:07;;;;;;;;;;;;;;;17.43;100.00;100385.38;4926082;29;19941;-84
2023/09/20 12:59:53;;;;;;;;;;;;;;;17.51;100.00;100370.38;4930940;28;19923;-83
2023/09/20 13:02:38;;;;;;;;;;;;;;;17.60;100.00;100370.59;4932491;28;20045;-84
2023/09/20 13:05:27;;;;;;;;;;;;;;;17.70;100.00;100363.50;4940689;28;19930;-82
2023/09/20 13:08:16;;;;;;;;;;;;;;;17.83;100.00;100363.31;4943904;29;19927;-83
2023/09/20 13:11:05;;;;;;;;;;;;;;;17.95;100.00;100357.91;4941128;28;19938;-83
2023/09/20 13:13:50;;;;;;;;;;;;;;;18.07;100.00;100348.03;4938863;29;19942;-83
2023/09/20 13:16:36;;;;;;;;;;;;;;;18.19;100.00;100357.66;4925090;29;19930;-84
2023/09/20 13:19:25;;;;;;;;;;;;;;;18.26;100.00;100349.97;4927310;29;19941;-85
2023/09/20 13:22:11;;;;;;;;;;;;;;;18.30;100.00;100333.50;4927272;28;20382;-85
2023/09/20 13:24:57;;;;;;;;;;;;;;;18.38;100.00;100323.94;4911260;29;19967;-82
2023/09/20 13:27:43;;;;;;;;;;;;;;;18.41;100.00;100331.72;4926043;29;20314;-85
2023/09/20 13:30:29;;;;;;;;;;;;;;;18.49;100.00;100331.03;4927160;29;19927;-85
2023/09/20 13:33:16;;;;;;;;;;;;;;;18.53;100.00;100327.94;4927499;29;19935;-85
2023/09/20 13:36:05;;;;;;;;;;;;;;;18.59;100.00;100327.41;4914779;29;19946;-87
2023/09/20 13:38:50;;;;;;;;;;;;;;;18.65;100.00;100327.84;4942198;28;19937;-83
2023/09/20 13:41:36;;;;;;;;;;;;;;;18.69;100.00;100322.09;4927897;29;19930;-84
2023/09/20 13:44:27;;;;;;;;;;;;;;;18.75;100.00;100315.34;4926623;29;19927;-87
2023/09/20 13:47:13;;;;;;;;;;;;;;;18.81;100.00;100317.50;4918177;29;19933;-79
2023/09/20 13:50:00;;;;;;;;;;;;;;;18.85;100.00;100318.06;4910097;29;20072;-82
2023/09/20 13:52:45;;;;;;;;;;;;;;;18.85;100.00;100313.53;4941927;29;19934;-83
2023/09/20 13:55:34;;;;;;;;;;;;;;;18.87;100.00;100316.91;4942251;28;19931;-85
2023/09/20 13:58:19;;;;;;;;;;;;;;;18.90;100.00;100312.28;4944045;28;19927;-88
2023/09/20 14:01:08;;;;;;;;;;;;;;;18.96;100.00;100311.75;4925531;29;19938;-83
2023/09/20 14:03:54;;;;;;;;;;;;;;;19.03;100.00;100312.91;4925948;29;19935;-87
2023/09/20 14:06:41;;;;;;;;;;;;;;;19.09;100.00;100315.06;4943926;28;19943;-82
2023/09/20 14:09:27;;;;;;;;;;;;;;;19.10;100.00;100300.66;4942570;28;19930;-82
2023/09/20 14:12:15;;;;;;;;;;;;;;;19.09;100.00;100306.13;4941592;28;20379;-84
2023/09/20 14:15:01;;;;;;;;;;;;;;;19.06;100.00;100303.75;4927216;29;20461;-85
2023/09/20 14:17:46;;;;;;;;;;;;;;;19.02;100.00;100294.25;4928119;29;19965;-84
2023/09/20 14:20:39;;;;;;;;;;;;;;;18.99;100.00;100300.72;4928781;28;19931;-83
2023/09/20 14:23:24;;;;;;;;;;;;;;;19.00;100.00;100289.00;4940993;29;19929;-83
2023/09/20 14:26:11;;;;;;;;;;;;;;;18.99;100.00;100290.84;4928980;29;19969;-82
2023/09/20 14:28:57;;;;;;;;;;;;;;;18.98;100.00;100288.31;4928833;29;20382;-83
2023/09/20 14:31:45;;;;;;;;;;;;;;;18.97;100.00;100297.34;4939028;29;19934;-82
2023/09/20 14:34:31;;;;;;;;;;;;;;;18.96;100.00;100292.97;4942532;28;20303;-84
2023/09/20 14:37:16;;;;;;;;;;;;;;;18.95;100.00;100280.56;4946773;28;19938;-82
2023/09/20 14:40:03;;;;;;;;;;;;;;;18.93;100.00;100286.03;4931827;28;19950;-80
2023/09/20 14:42:51;;;;;;;;;;;;;;;18.91;100.00;100282.63;4944238;28;19927;-80
2023/09/20 14:45:37;;;;;;;;;;;;;;;18.91;100.00;100288.00;4945600;28;20057;-80
2023/09/20 14:48:22;;;;;;;;;;;;;;;18.90;100.00;100288.16;4918503;29;21673;-81
2023/09/20 14:51:14;;;;;;;;;;;;;;;18.90;100.00;100297.03;4930044;29;19976;-81
2023/09/20 14:54:00;;;;;;;;;;;;;;;18.93;100.00;100291.41;4946439;28;20270;-81
2023/09/20 14:56:46;;;;;;;;;;;;;;;18.96;100.00;100291.13;4931824;28;19941;-80
2023/09/20 14:59:31;;;;;;;;;;;;;;;19.02;100.00;100295.13;4941880;28;19946;-77
2023/09/20 15:02:17;;;;;;;;;;;;;;;19.06;100.00;100293.84;4941374;28;20085;-82
2023/09/20 15:05:06;;;;;;;;;;;;;;;19.10;100.00;100292.59;4927413;29;19935;-84
2023/09/20 15:07:55;;;;;;;;;;;;;;;19.12;100.00;100297.84;4927392;29;19993;-83
2023/09/20 15:10:41;;;;;;;;;;;;;;;19.10;100.00;100295.28;4919002;29;19937;-85
2023/09/20 15:13:28;;;;;;;;;;;;;;;19.09;100.00;100290.91;4944926;29;19969;-84
2023/09/20 15:16:17;;;;;;;;;;;;;;;19.09;100.00;100298.09;4929061;29;19941;-84
2023/09/20 15:19:03;;;;;;;;;;;;;;;19.07;100.00;100287.50;4927157;29;19931;-83
2023/09/20 15:21:48;;;;;;;;;;;;;;;19.07;100.00;100286.66;4928411;29;19978;-83
2023/09/20 15:24:37;;;;;;;;;;;;;;;19.05;100.00;100289.47;4945206;29;19930;-81
2023/09/20 15:27:26;;;;;;;;;;;;;;;19.04;100.00;100276.19;4929766;28;20441;-85
2023/09/20 15:30:12;;;;;;;;;;;;;;;18.99;100.00;100280.13;4924622;29;20366;-83
2023/09/20 15:32:58;;;;;;;;;;;;;;;18.97;100.00;100279.41;4937473;29;19967;-81
2023/09/20 15:35:43;;;;;;;;;;;;;;;18.93;100.00;100282.50;4927252;28;20393;-83
2023/09/20 15:38:36;;;;;;;;;;;;;;;18.89;100.00;100281.09;4938623;29;19969;-85